Terminal Aerodrome Forecast
Issued by NWS Austin/San Antonio, TX

Home | Current Version | Previous Version | Text Only | Print | Product List | Glossary On
Versions: 1 2 3 4 5 6 7 8 9 10 11 12 13 14 15 16 17 18 19 20 21 22 23 24 25 26 27 28 29 30 31 32 33 34 35 36
227
FTUS44 KEWX 270520
TAFSAT
TAF
KSAT 270520Z 2706/2812 02010KT P6SM SCT150 BKN250
     FM270900 01010KT P6SM OVC015
     FM272000 36009KT P6SM BKN035 OVC120
     FM280300 34006KT P6SM FEW040 BKN150=

USA.gov is the U.S. government's official web portal to all federal, state and local government web resources and services.